sensor_id;sensor_type;location;lat;lon;timestamp;pressure;altitude;pressure_sealevel;temperature;humidity
42591;BME280;28218;53.342;-6.216;2023-08-07T00:00:55;102111.88;;;14.36;100.00
42591;BME280;28218;53.342;-6.216;2023-08-07T00:03:24;102110.72;;;14.39;100.00
42591;BME280;28218;53.342;-6.216;2023-08-07T00:05:53;102114.06;;;14.41;100.00
42591;BME280;28218;53.342;-6.216;2023-08-07T00:08:21;102105.75;;;14.44;100.00
42591;BME280;28218;53.342;-6.216;2023-08-07T00:10:50;102106.28;;;14.47;100.00
42591;BME280;28218;53.342;-6.216;2023-08-07T00:13:18;102100.00;;;14.48;100.00
42591;BME280;28218;53.342;-6.216;2023-08-07T00:15:46;102104.47;;;14.48;100.00
42591;BME280;28218;53.342;-6.216;2023-08-07T00:18:14;102099.03;;;14.49;100.00
42591;BME280;28218;53.342;-6.216;2023-08-07T00:20:44;102097.34;;;14.48;100.00
42591;BME280;28218;53.342;-6.216;2023-08-07T00:23:12;102093.56;;;14.51;100.00
42591;BME280;28218;53.342;-6.216;2023-08-07T00:25:40;102094.69;;;14.48;100.00
42591;BME280;28218;53.342;-6.216;2023-08-07T00:28:08;102094.84;;;14.47;100.00
42591;BME280;28218;53.342;-6.216;2023-08-07T00:30:37;102100.47;;;14.44;100.00
42591;BME280;28218;53.342;-6.216;2023-08-07T00:33:05;102086.72;;;14.40;100.00
42591;BME280;28218;53.342;-6.216;2023-08-07T00:35:33;102099.81;;;14.42;100.00
42591;BME280;28218;53.342;-6.216;2023-08-07T00:38:03;102104.44;;;14.40;100.00
42591;BME280;28218;53.342;-6.216;2023-08-07T00:40:36;102107.91;;;14.40;100.00
42591;BME280;28218;53.342;-6.216;2023-08-07T00:43:05;102108.88;;;14.39;100.00
42591;BME280;28218;53.342;-6.216;2023-08-07T00:45:43;102092.00;;;14.40;100.00
42591;BME280;28218;53.342;-6.216;2023-08-07T00:48:13;102100.94;;;14.39;100.00
42591;BME280;28218;53.342;-6.216;2023-08-07T00:50:44;102097.63;;;14.37;100.00
42591;BME280;28218;53.342;-6.216;2023-08-07T00:53:15;102099.63;;;14.35;100.00
42591;BME280;28218;53.342;-6.216;2023-08-07T00:55:43;102100.75;;;14.32;100.00
42591;BME280;28218;53.342;-6.216;2023-08-07T00:58:12;102099.09;;;14.31;100.00
42591;BME280;28218;53.342;-6.216;2023-08-07T01:00:40;102104.53;;;14.30;100.00
42591;BME280;28218;53.342;-6.216;2023-08-07T01:03:11;102098.28;;;14.31;100.00
42591;BME280;28218;53.342;-6.216;2023-08-07T01:05:40;102105.22;;;14.32;100.00
42591;BME280;28218;53.342;-6.216;2023-08-07T01:08:09;102101.59;;;14.33;100.00
42591;BME280;28218;53.342;-6.216;2023-08-07T01:10:49;102107.56;;;14.35;100.00
42591;BME280;28218;53.342;-6.216;2023-08-07T01:13:27;102108.41;;;14.36;100.00
42591;BME280;28218;53.342;-6.216;2023-08-07T01:16:03;102109.38;;;14.35;100.00
42591;BME280;28218;53.342;-6.216;2023-08-07T01:18:34;102100.59;;;14.34;100.00
42591;BME280;28218;53.342;-6.216;2023-08-07T01:21:04;102105.06;;;14.33;100.00
42591;BME280;28218;53.342;-6.216;2023-08-07T01:23:33;102105.41;;;14.30;100.00
42591;BME280;28218;53.342;-6.216;2023-08-07T01:26:02;102103.06;;;14.27;100.00
42591;BME280;28218;53.342;-6.216;2023-08-07T01:28:33;102102.53;;;14.24;100.00
42591;BME280;28218;53.342;-6.216;2023-08-07T01:31:08;102103.84;;;14.20;100.00
42591;BME280;28218;53.342;-6.216;2023-08-07T01:33:43;102096.53;;;14.14;100.00
42591;BME280;28218;53.342;-6.216;2023-08-07T01:36:16;102094.50;;;14.07;100.00
42591;BME280;28218;53.342;-6.216;2023-08-07T01:38:48;102092.16;;;14.04;100.00
42591;BME280;28218;53.342;-6.216;2023-08-07T01:41:18;102104.41;;;14.05;100.00
42591;BME280;28218;53.342;-6.216;2023-08-07T01:43:47;102092.16;;;14.04;100.00
42591;BME280;28218;53.342;-6.216;2023-08-07T01:46:16;102098.28;;;14.05;100.00
42591;BME280;28218;53.342;-6.216;2023-08-07T01:48:44;102087.84;;;14.03;100.00
42591;BME280;28218;53.342;-6.216;2023-08-07T01:51:12;102098.75;;;14.00;100.00
42591;BME280;28218;53.342;-6.216;2023-08-07T01:53:41;102093.78;;;13.97;100.00
42591;BME280;28218;53.342;-6.216;2023-08-07T01:56:10;102090.47;;;13.95;100.00
42591;BME280;28218;53.342;-6.216;2023-08-07T01:58:38;102088.09;;;13.92;100.00
42591;BME280;28218;53.342;-6.216;2023-08-07T02:01:07;102083.13;;;13.89;100.00
42591;BME280;28218;53.342;-6.216;2023-08-07T02:03:35;102081.63;;;13.87;100.00
42591;BME280;28218;53.342;-6.216;2023-08-07T02:06:03;102081.78;;;13.85;100.00
42591;BME280;28218;53.342;-6.216;2023-08-07T02:08:31;102074.13;;;13.82;100.00
42591;BME280;28218;53.342;-6.216;2023-08-07T02:10:59;102066.53;;;13.79;100.00
42591;BME280;28218;53.342;-6.216;2023-08-07T02:13:31;102065.00;;;13.76;100.00
42591;BME280;28218;53.342;-6.216;2023-08-07T02:15:59;102066.16;;;13.74;100.00
42591;BME280;28218;53.342;-6.216;2023-08-07T02:18:27;102064.66;;;13.71;100.00
42591;BME280;28218;53.342;-6.216;2023-08-07T02:20:55;102070.25;;;13.68;100.00
42591;BME280;28218;53.342;-6.216;2023-08-07T02:23:23;102059.81;;;13.67;100.00
42591;BME280;28218;53.342;-6.216;2023-08-07T02:25:52;102065.94;;;13.67;100.00
42591;BME280;28218;53.342;-6.216;2023-08-07T02:28:20;102071.25;;;13.67;100.00
42591;BME280;28218;53.342;-6.216;2023-08-07T02:30:49;102066.94;;;13.66;100.00
42591;BME280;28218;53.342;-6.216;2023-08-07T02:33:20;102061.09;;;13.63;100.00
42591;BME280;28218;53.342;-6.216;2023-08-07T02:35:48;102049.69;;;13.62;100.00
42591;BME280;28218;53.342;-6.216;2023-08-07T02:38:17;102054.16;;;13.62;100.00
42591;BME280;28218;53.342;-6.216;2023-08-07T02:40:46;102050.00;;;13.59;100.00
42591;BME280;28218;53.342;-6.216;2023-08-07T02:43:14;102049.31;;;13.57;100.00
42591;BME280;28218;53.342;-6.216;2023-08-07T02:45:42;102047.50;;;13.58;100.00
42591;BME280;28218;53.342;-6.216;2023-08-07T02:48:12;102040.56;;;13.57;100.00
42591;BME280;28218;53.342;-6.216;2023-08-07T02:50:40;102031.09;;;13.54;100.00
42591;BME280;28218;53.342;-6.216;2023-08-07T02:53:09;102037.38;;;13.53;100.00
42591;BME280;28218;53.342;-6.216;2023-08-07T02:55:37;102037.53;;;13.51;100.00
42591;BME280;28218;53.342;-6.216;2023-08-07T02:58:05;102043.66;;;13.52;100.00
42591;BME280;28218;53.342;-6.216;2023-08-07T03:00:34;102050.63;;;13.53;100.00
42591;BME280;28218;53.342;-6.216;2023-08-07T03:03:03;102047.31;;;13.51;100.00
42591;BME280;28218;53.342;-6.216;2023-08-07T03:05:32;102052.72;;;13.49;100.00
42591;BME280;28218;53.342;-6.216;2023-08-07T03:08:00;102054.72;;;13.47;100.00
42591;BME280;28218;53.342;-6.216;2023-08-07T03:10:29;102061.84;;;13.47;100.00
42591;BME280;28218;53.342;-6.216;2023-08-07T03:12:57;102056.84;;;13.44;100.00
42591;BME280;28218;53.342;-6.216;2023-08-07T03:15:25;102059.13;;;13.39;100.00
42591;BME280;28218;53.342;-6.216;2023-08-07T03:17:53;102057.63;;;13.36;100.00
42591;BME280;28218;53.342;-6.216;2023-08-07T03:20:21;102057.63;;;13.36;100.00
42591;BME280;28218;53.342;-6.216;2023-08-07T03:22:51;102063.88;;;13.35;100.00
42591;BME280;28218;53.342;-6.216;2023-08-07T03:25:19;102055.09;;;13.35;100.00
42591;BME280;28218;53.342;-6.216;2023-08-07T03:27:47;102052.63;;;13.33;100.00
42591;BME280;28218;53.342;-6.216;2023-08-07T03:30:15;102053.44;;;13.34;100.00
42591;BME280;28218;53.342;-6.216;2023-08-07T03:32:44;102048.31;;;13.32;100.00
42591;BME280;28218;53.342;-6.216;2023-08-07T03:35:12;102044.69;;;13.33;100.00
42591;BME280;28218;53.342;-6.216;2023-08-07T03:37:40;102047.63;;;13.30;100.00
42591;BME280;28218;53.342;-6.216;2023-08-07T03:40:11;102042.34;;;13.30;100.00
42591;BME280;28218;53.342;-6.216;2023-08-07T03:42:39;102044.31;;;13.28;100.00
42591;BME280;28218;53.342;-6.216;2023-08-07T03:45:08;102037.19;;;13.28;100.00
42591;BME280;28218;53.342;-6.216;2023-08-07T03:47:36;102032.75;;;13.29;100.00
42591;BME280;28218;53.342;-6.216;2023-08-07T03:50:05;102035.56;;;13.27;100.00
42591;BME280;28218;53.342;-6.216;2023-08-07T03:52:33;102025.78;;;13.28;100.00
42591;BME280;28218;53.342;-6.216;2023-08-07T03:55:02;102036.06;;;13.31;100.00
42591;BME280;28218;53.342;-6.216;2023-08-07T03:57:32;102029.94;;;13.30;100.00
42591;BME280;28218;53.342;-6.216;2023-08-07T04:00:00;102021.97;;;13.30;100.00
42591;BME280;28218;53.342;-6.216;2023-08-07T04:02:28;102018.50;;;13.30;100.00
42591;BME280;28218;53.342;-6.216;2023-08-07T04:04:57;102014.88;;;13.31;100.00
42591;BME280;28218;53.342;-6.216;2023-08-07T04:07:25;102007.78;;;13.32;100.00
42591;BME280;28218;53.342;-6.216;2023-08-07T04:09:53;102005.16;;;13.32;100.00
42591;BME280;28218;53.342;-6.216;2023-08-07T04:12:21;102012.91;;;13.33;100.00
42591;BME280;28218;53.342;-6.216;2023-08-07T04:14:51;102027.50;;;13.37;100.00
42591;BME280;28218;53.342;-6.216;2023-08-07T04:17:19;102016.94;;;13.37;100.00
42591;BME280;28218;53.342;-6.216;2023-08-07T04:19:48;102020.06;;;13.41;100.00
42591;BME280;28218;53.342;-6.216;2023-08-07T04:22:16;102026.22;;;13.41;100.00
42591;BME280;28218;53.342;-6.216;2023-08-07T04:24:44;102021.44;;;13.45;100.00
42591;BME280;28218;53.342;-6.216;2023-08-07T04:27:12;102020.31;;;13.47;100.00
42591;BME280;28218;53.342;-6.216;2023-08-07T04:29:41;102020.31;;;13.47;100.00
42591;BME280;28218;53.342;-6.216;2023-08-07T04:32:10;102015.53;;;13.51;100.00
42591;BME280;28218;53.342;-6.216;2023-08-07T04:34:38;102018.19;;;13.51;100.00
42591;BME280;28218;53.342;-6.216;2023-08-07T04:37:07;102015.53;;;13.51;100.00
42591;BME280;28218;53.342;-6.216;2023-08-07T04:39:35;102026.63;;;13.54;100.00
42591;BME280;28218;53.342;-6.216;2023-08-07T04:42:04;102029.97;;;13.57;100.00
42591;BME280;28218;53.342;-6.216;2023-08-07T04:44:32;102031.63;;;13.58;100.00
42591;BME280;28218;53.342;-6.216;2023-08-07T04:47:01;102029.63;;;13.60;100.00
42591;BME280;28218;53.342;-6.216;2023-08-07T04:49:30;102017.06;;;13.62;100.00
42591;BME280;28218;53.342;-6.216;2023-08-07T04:51:58;102010.63;;;13.64;100.00
42591;BME280;28218;53.342;-6.216;2023-08-07T04:54:46;102024.56;;;13.66;100.00
42591;BME280;28218;53.342;-6.216;2023-08-07T04:57:14;102024.84;;;13.63;100.00
42591;BME280;28218;53.342;-6.216;2023-08-07T04:59:42;102017.44;;;13.67;100.00
42591;BME280;28218;53.342;-6.216;2023-08-07T05:02:11;102014.78;;;13.67;100.00
42591;BME280;28218;53.342;-6.216;2023-08-07T05:04:40;102019.78;;;13.70;100.00
42591;BME280;28218;53.342;-6.216;2023-08-07T05:07:09;102018.47;;;13.74;100.00
42591;BME280;28218;53.342;-6.216;2023-08-07T05:09:37;102009.53;;;13.75;100.00
42591;BME280;28218;53.342;-6.216;2023-08-07T05:12:07;102016.81;;;13.73;100.00
42591;BME280;28218;53.342;-6.216;2023-08-07T05:14:35;102009.69;;;13.73;100.00
42591;BME280;28218;53.342;-6.216;2023-08-07T05:17:03;102007.72;;;13.75;100.00
42591;BME280;28218;53.342;-6.216;2023-08-07T05:19:32;102012.03;;;13.76;100.00
42591;BME280;28218;53.342;-6.216;2023-08-07T05:22:02;102007.41;;;13.78;100.00
42591;BME280;28218;53.342;-6.216;2023-08-07T05:24:30;102006.25;;;13.81;100.00
42591;BME280;28218;53.342;-6.216;2023-08-07T05:27:07;101998.31;;;13.81;100.00
42591;BME280;28218;53.342;-6.216;2023-08-07T05:29:36;102005.13;;;13.84;100.00
42591;BME280;28218;53.342;-6.216;2023-08-07T05:32:11;101998.66;;;13.86;100.00
42591;BME280;28218;53.342;-6.216;2023-08-07T05:34:40;101996.69;;;13.88;100.00
42591;BME280;28218;53.342;-6.216;2023-08-07T05:37:09;101996.06;;;13.94;100.00
42591;BME280;28218;53.342;-6.216;2023-08-07T05:39:38;102000.19;;;13.97;100.00
42591;BME280;28218;53.342;-6.216;2023-08-07T05:42:06;102004.34;;;13.99;100.00
42591;BME280;28218;53.342;-6.216;2023-08-07T05:44:36;102003.19;;;14.02;100.00
42591;BME280;28218;53.342;-6.216;2023-08-07T05:47:05;102010.66;;;14.06;100.00
42591;BME280;28218;53.342;-6.216;2023-08-07T05:49:33;102015.31;;;14.04;100.00
42591;BME280;28218;53.342;-6.216;2023-08-07T05:52:02;102004.53;;;14.06;100.00
42591;BME280;28218;53.342;-6.216;2023-08-07T05:54:31;102001.41;;;14.11;100.00
42591;BME280;28218;53.342;-6.216;2023-08-07T05:56:59;101996.81;;;14.21;100.00
42591;BME280;28218;53.342;-6.216;2023-08-07T05:59:28;101998.13;;;14.25;100.00
42591;BME280;28218;53.342;-6.216;2023-08-07T06:01:56;101998.50;;;14.30;100.00
42591;BME280;28218;53.342;-6.216;2023-08-07T06:04:26;101999.69;;;14.36;100.00
42591;BME280;28218;53.342;-6.216;2023-08-07T06:06:54;101996.56;;;14.40;100.00
42591;BME280;28218;53.342;-6.216;2023-08-07T06:09:22;101996.88;;;14.45;100.00
42591;BME280;28218;53.342;-6.216;2023-08-07T06:11:52;101989.44;;;14.49;100.00
42591;BME280;28218;53.342;-6.216;2023-08-07T06:14:20;101988.31;;;14.51;100.00
42591;BME280;28218;53.342;-6.216;2023-08-07T06:16:49;101991.78;;;14.52;100.00
42591;BME280;28218;53.342;-6.216;2023-08-07T06:19:17;101995.25;;;14.52;100.00
42591;BME280;28218;53.342;-6.216;2023-08-07T06:21:58;101989.66;;;14.55;100.00
42591;BME280;28218;53.342;-6.216;2023-08-07T06:24:27;101995.25;;;14.52;100.00
42591;BME280;28218;53.342;-6.216;2023-08-07T06:26:57;101985.84;;;14.50;100.00
42591;BME280;28218;53.342;-6.216;2023-08-07T06:29:25;101985.47;;;14.53;100.00
42591;BME280;28218;53.342;-6.216;2023-08-07T06:31:53;101980.69;;;14.56;100.00
42591;BME280;28218;53.342;-6.216;2023-08-07T06:34:22;101975.72;;;14.62;100.00
42591;BME280;28218;53.342;-6.216;2023-08-07T06:36:50;101986.00;;;14.65;100.00
42591;BME280;28218;53.342;-6.216;2023-08-07T06:39:18;101987.66;;;14.66;100.00
42591;BME280;28218;53.342;-6.216;2023-08-07T06:41:46;101995.31;;;14.69;100.00
42591;BME280;28218;53.342;-6.216;2023-08-07T06:44:16;101992.31;;;14.72;100.00
42591;BME280;28218;53.342;-6.216;2023-08-07T06:46:44;101991.00;;;14.76;100.00
42591;BME280;28218;53.342;-6.216;2023-08-07T06:49:12;101984.38;;;14.80;100.00
42591;BME280;28218;53.342;-6.216;2023-08-07T06:51:40;101982.72;;;14.87;100.00
42591;BME280;28218;53.342;-6.216;2023-08-07T06:54:09;101979.41;;;14.93;100.00
42591;BME280;28218;53.342;-6.216;2023-08-07T06:56:37;101978.91;;;14.98;100.00
42591;BME280;28218;53.342;-6.216;2023-08-07T06:59:07;101980.38;;;15.00;100.00
42591;BME280;28218;53.342;-6.216;2023-08-07T07:01:37;101981.88;;;15.03;100.00
42591;BME280;28218;53.342;-6.216;2023-08-07T07:04:05;101988.00;;;15.03;100.00
42591;BME280;28218;53.342;-6.216;2023-08-07T07:06:33;101986.19;;;15.04;100.00
42591;BME280;28218;53.342;-6.216;2023-08-07T07:09:02;101987.69;;;15.06;100.00
42591;BME280;28218;53.342;-6.216;2023-08-07T07:11:30;101990.00;;;15.09;100.00
42591;BME280;28218;53.342;-6.216;2023-08-07T07:13:58;101990.00;;;15.09;100.00
42591;BME280;28218;53.342;-6.216;2023-08-07T07:16:26;101999.63;;;15.11;100.00
42591;BME280;28218;53.342;-6.216;2023-08-07T07:18:58;102005.59;;;15.13;100.00
42591;BME280;28218;53.342;-6.216;2023-08-07T07:21:26;101990.81;;;15.18;100.00
42591;BME280;28218;53.342;-6.216;2023-08-07T07:23:54;101990.50;;;15.21;100.00
42591;BME280;28218;53.342;-6.216;2023-08-07T07:26:23;101991.97;;;15.24;100.00
42591;BME280;28218;53.342;-6.216;2023-08-07T07:28:51;101991.00;;;15.25;100.00
42591;BME280;28218;53.342;-6.216;2023-08-07T07:31:19;101983.84;;;15.25;100.00
42591;BME280;28218;53.342;-6.216;2023-08-07T07:33:48;101994.81;;;15.22;100.00
42591;BME280;28218;53.342;-6.216;2023-08-07T07:36:18;101996.97;;;15.35;100.00
42591;BME280;28218;53.342;-6.216;2023-08-07T07:38:47;101983.31;;;15.38;100.00
42591;BME280;28218;53.342;-6.216;2023-08-07T07:41:15;101995.44;;;15.41;100.00
42591;BME280;28218;53.342;-6.216;2023-08-07T07:43:44;101980.47;;;15.48;100.00
42591;BME280;28218;53.342;-6.216;2023-08-07T07:46:12;101977.50;;;15.51;100.00
42591;BME280;28218;53.342;-6.216;2023-08-07T07:48:40;101983.47;;;15.53;100.00
42591;BME280;28218;53.342;-6.216;2023-08-07T07:51:09;101980.66;;;15.54;100.00
42591;BME280;28218;53.342;-6.216;2023-08-07T07:53:39;101987.13;;;15.52;100.00
42591;BME280;28218;53.342;-6.216;2023-08-07T07:56:07;101982.63;;;15.52;100.00
42591;BME280;28218;53.342;-6.216;2023-08-07T07:58:35;101974.66;;;15.52;100.00
42591;BME280;28218;53.342;-6.216;2023-08-07T08:01:03;101985.97;;;15.54;100.00
42591;BME280;28218;53.342;-6.216;2023-08-07T08:03:33;101982.13;;;15.57;100.00
42591;BME280;28218;53.342;-6.216;2023-08-07T08:06:01;101992.22;;;15.62;100.00
42591;BME280;28218;53.342;-6.216;2023-08-07T08:08:30;101988.59;;;15.71;100.00
42591;BME280;28218;53.342;-6.216;2023-08-07T08:11:00;101986.22;;;15.84;100.00
42591;BME280;28218;53.342;-6.216;2023-08-07T08:13:29;101982.84;;;15.98;100.00
42591;BME280;28218;53.342;-6.216;2023-08-07T08:15:58;101978.13;;;16.08;100.00
42591;BME280;28218;53.342;-6.216;2023-08-07T08:18:26;101980.75;;;16.17;100.00
42591;BME280;28218;53.342;-6.216;2023-08-07T08:20:54;101975.75;;;16.22;100.00
42591;BME280;28218;53.342;-6.216;2023-08-07T08:23:23;101976.75;;;16.21;100.00
42591;BME280;28218;53.342;-6.216;2023-08-07T08:25:51;101978.88;;;16.25;100.00
42591;BME280;28218;53.342;-6.216;2023-08-07T08:28:20;101973.34;;;16.35;100.00
42591;BME280;28218;53.342;-6.216;2023-08-07T08:30:51;101972.63;;;16.41;100.00
42591;BME280;28218;53.342;-6.216;2023-08-07T08:33:19;101973.59;;;16.48;100.00
42591;BME280;28218;53.342;-6.216;2023-08-07T08:35:47;101968.88;;;16.58;100.00
42591;BME280;28218;53.342;-6.216;2023-08-07T08:38:16;101971.09;;;16.70;100.00
42591;BME280;28218;53.342;-6.216;2023-08-07T08:40:48;101977.91;;;16.80;100.00
42591;BME280;28218;53.342;-6.216;2023-08-07T08:43:21;101973.03;;;16.84;100.00
42591;BME280;28218;53.342;-6.216;2023-08-07T08:45:50;101968.03;;;16.89;100.00
42591;BME280;28218;53.342;-6.216;2023-08-07T08:48:20;101979.31;;;16.91;100.00
42591;BME280;28218;53.342;-6.216;2023-08-07T08:50:50;101975.28;;;16.95;100.00
42591;BME280;28218;53.342;-6.216;2023-08-07T08:53:20;101978.41;;;16.99;100.00
42591;BME280;28218;53.342;-6.216;2023-08-07T08:55:49;101976.69;;;17.06;100.00
42591;BME280;28218;53.342;-6.216;2023-08-07T08:58:20;101979.06;;;17.16;100.00
42591;BME280;28218;53.342;-6.216;2023-08-07T09:00:49;101981.66;;;17.24;100.00
42591;BME280;28218;53.342;-6.216;2023-08-07T09:03:18;101978.13;;;17.31;100.00
42591;BME280;28218;53.342;-6.216;2023-08-07T09:05:47;101986.53;;;17.35;100.00
42591;BME280;28218;53.342;-6.216;2023-08-07T09:08:17;101976.56;;;17.37;100.00
42591;BME280;28218;53.342;-6.216;2023-08-07T09:10:46;101977.00;;;17.41;100.00
42591;BME280;28218;53.342;-6.216;2023-08-07T09:13:16;101990.16;;;17.42;100.00
42591;BME280;28218;53.342;-6.216;2023-08-07T09:15:50;101985.84;;;17.41;100.00
42591;BME280;28218;53.342;-6.216;2023-08-07T09:18:19;101982.97;;;17.43;100.00
42591;BME280;28218;53.342;-6.216;2023-08-07T09:20:48;101985.72;;;17.49;100.00
42591;BME280;28218;53.342;-6.216;2023-08-07T09:23:16;101980.13;;;17.59;100.00
42591;BME280;28218;53.342;-6.216;2023-08-07T09:25:45;101980.03;;;17.67;100.00
42591;BME280;28218;53.342;-6.216;2023-08-07T09:28:14;101986.47;;;17.73;100.00
42591;BME280;28218;53.342;-6.216;2023-08-07T09:30:42;101979.50;;;17.72;100.00
42591;BME280;28218;53.342;-6.216;2023-08-07T09:33:12;101972.47;;;17.79;100.00
42591;BME280;28218;53.342;-6.216;2023-08-07T09:35:41;101972.47;;;17.79;100.00
42591;BME280;28218;53.342;-6.216;2023-08-07T09:38:09;101978.63;;;17.79;100.00
42591;BME280;28218;53.342;-6.216;2023-08-07T09:40:37;101979.78;;;17.77;100.00
42591;BME280;28218;53.342;-6.216;2023-08-07T09:43:06;101981.63;;;17.76;100.00
42591;BME280;28218;53.342;-6.216;2023-08-07T09:45:35;101983.66;;;17.74;100.00
42591;BME280;28218;53.342;-6.216;2023-08-07T09:48:04;101982.34;;;17.70;100.00
42591;BME280;28218;53.342;-6.216;2023-08-07T09:50:35;101987.50;;;17.72;100.00
42591;BME280;28218;53.342;-6.216;2023-08-07T09:53:03;101982.50;;;17.69;100.00
42591;BME280;28218;53.342;-6.216;2023-08-07T09:55:32;101979.84;;;17.69;100.00
42591;BME280;28218;53.342;-6.216;2023-08-07T09:58:00;101981.84;;;17.75;100.00
42591;BME280;28218;53.342;-6.216;2023-08-07T10:00:33;101973.09;;;17.81;100.00
42591;BME280;28218;53.342;-6.216;2023-08-07T10:03:03;101977.50;;;17.88;100.00
42591;BME280;28218;53.342;-6.216;2023-08-07T10:05:32;101968.00;;;18.01;100.00
42591;BME280;28218;53.342;-6.216;2023-08-07T10:08:02;101972.78;;;18.05;100.00
42591;BME280;28218;53.342;-6.216;2023-08-07T10:10:32;101966.72;;;18.11;100.00
42591;BME280;28218;53.342;-6.216;2023-08-07T10:13:01;101966.72;;;18.11;100.00
42591;BME280;28218;53.342;-6.216;2023-08-07T10:15:30;101966.16;;;18.16;100.00
42591;BME280;28218;53.342;-6.216;2023-08-07T10:17:59;101968.50;;;18.26;100.00
42591;BME280;28218;53.342;-6.216;2023-08-07T10:20:28;101974.97;;;18.38;100.00
42591;BME280;28218;53.342;-6.216;2023-08-07T10:23:00;101968.31;;;18.49;100.00
42591;BME280;28218;53.342;-6.216;2023-08-07T10:25:32;101963.69;;;18.57;100.00
42591;BME280;28218;53.342;-6.216;2023-08-07T10:28:02;101972.19;;;18.68;100.00
42591;BME280;28218;53.342;-6.216;2023-08-07T10:30:33;101969.50;;;18.82;100.00
42591;BME280;28218;53.342;-6.216;2023-08-07T10:33:02;101974.28;;;18.87;100.00
42591;BME280;28218;53.342;-6.216;2023-08-07T10:35:32;101974.06;;;18.88;100.00
42591;BME280;28218;53.342;-6.216;2023-08-07T10:38:10;101985.34;;;18.84;100.00
42591;BME280;28218;53.342;-6.216;2023-08-07T10:41:02;101989.59;;;18.78;100.00
42591;BME280;28218;53.342;-6.216;2023-08-07T10:43:30;101985.44;;;18.76;100.00
42591;BME280;28218;53.342;-6.216;2023-08-07T10:46:05;101981.91;;;18.69;100.00
42591;BME280;28218;53.342;-6.216;2023-08-07T10:48:41;101977.72;;;18.66;100.00
42591;BME280;28218;53.342;-6.216;2023-08-07T10:51:12;101964.75;;;18.63;100.00
42591;BME280;28218;53.342;-6.216;2023-08-07T10:53:43;101975.38;;;18.56;100.00
42591;BME280;28218;53.342;-6.216;2023-08-07T10:56:17;101957.47;;;18.50;100.00
42591;BME280;28218;53.342;-6.216;2023-08-07T10:58:49;101961.06;;;18.43;100.00
42591;BME280;28218;53.342;-6.216;2023-08-07T11:01:20;101964.06;;;18.33;100.00
42591;BME280;28218;53.342;-6.216;2023-08-07T11:03:54;101968.41;;;18.19;100.00
42591;BME280;28218;53.342;-6.216;2023-08-07T11:06:24;101976.00;;;18.01;100.00
42591;BME280;28218;53.342;-6.216;2023-08-07T11:08:54;101971.03;;;17.83;100.00
42591;BME280;28218;53.342;-6.216;2023-08-07T11:11:23;101969.03;;;17.70;100.00
42591;BME280;28218;53.342;-6.216;2023-08-07T11:13:51;101967.63;;;17.59;100.00
42591;BME280;28218;53.342;-6.216;2023-08-07T11:16:20;101970.75;;;17.48;100.00
42591;BME280;28218;53.342;-6.216;2023-08-07T11:18:49;101960.03;;;17.42;100.00
42591;BME280;28218;53.342;-6.216;2023-08-07T11:21:18;101962.84;;;17.40;100.00
42591;BME280;28218;53.342;-6.216;2023-08-07T11:23:47;101963.88;;;17.39;100.00
42591;BME280;28218;53.342;-6.216;2023-08-07T11:40:59;101931.44;;;17.80;100.00
42591;BME280;28218;53.342;-6.216;2023-08-07T11:43:28;101928.50;;;17.90;100.00
42591;BME280;28218;53.342;-6.216;2023-08-07T11:46:00;101922.66;;;18.01;100.00
42591;BME280;28218;53.342;-6.216;2023-08-07T11:48:30;101916.75;;;18.05;100.00
42591;BME280;28218;53.342;-6.216;2023-08-07T11:50:59;101918.28;;;18.14;100.00
42591;BME280;28218;53.342;-6.216;2023-08-07T11:53:29;101914.88;;;18.21;100.00
42591;BME280;28218;53.342;-6.216;2023-08-07T11:55:59;101915.31;;;18.24;100.00
42591;BME280;28218;53.342;-6.216;2023-08-07T11:58:33;101913.09;;;18.28;100.00
42591;BME280;28218;53.342;-6.216;2023-08-07T12:01:09;101914.19;;;18.33;100.00
42591;BME280;28218;53.342;-6.216;2023-08-07T12:03:39;101903.97;;;18.37;100.00
42591;BME280;28218;53.342;-6.216;2023-08-07T12:06:08;101907.91;;;18.41;100.00
42591;BME280;28218;53.342;-6.216;2023-08-07T12:08:38;101894.81;;;18.46;100.00
42591;BME280;28218;53.342;-6.216;2023-08-07T12:11:08;101893.28;;;18.58;100.00
42591;BME280;28218;53.342;-6.216;2023-08-07T12:13:37;101895.47;;;18.70;100.00
42591;BME280;28218;53.342;-6.216;2023-08-07T12:16:08;101895.94;;;18.80;100.00
42591;BME280;28218;53.342;-6.216;2023-08-07T12:18:37;101895.25;;;18.99;100.00
42591;BME280;28218;53.342;-6.216;2023-08-07T12:21:07;101886.97;;;19.22;100.00
42591;BME280;28218;53.342;-6.216;2023-08-07T12:23:36;101891.81;;;19.40;100.00
42591;BME280;28218;53.342;-6.216;2023-08-07T12:26:06;101895.97;;;19.49;100.00
42591;BME280;28218;53.342;-6.216;2023-08-07T12:28:34;101897.22;;;19.53;100.00
42591;BME280;28218;53.342;-6.216;2023-08-07T12:31:03;101899.25;;;19.51;100.00
42591;BME280;28218;53.342;-6.216;2023-08-07T12:33:33;101899.91;;;19.53;100.00
42591;BME280;28218;53.342;-6.216;2023-08-07T12:36:02;101893.53;;;19.54;100.00
42591;BME280;28218;53.342;-6.216;2023-08-07T12:38:30;101895.81;;;19.57;100.00
42591;BME280;28218;53.342;-6.216;2023-08-07T12:40:58;101891.94;;;19.60;100.00
42591;BME280;28218;53.342;-6.216;2023-08-07T12:43:26;101891.31;;;19.64;100.00
42591;BME280;28218;53.342;-6.216;2023-08-07T12:45:54;101887.22;;;19.69;100.00
42591;BME280;28218;53.342;-6.216;2023-08-07T12:48:44;101893.84;;;19.73;100.00
42591;BME280;28218;53.342;-6.216;2023-08-07T12:51:12;101883.38;;;19.78;100.00
42591;BME280;28218;53.342;-6.216;2023-08-07T12:53:40;101883.75;;;19.75;100.00
42591;BME280;28218;53.342;-6.216;2023-08-07T12:56:09;101871.03;;;19.77;100.00